Akebono — JG5644 — position and weather

sailwx.info

Track history (hours):
 
Tides and Currents Weather Stations Pressure Air Temp Water Temp Dewpoint Dewpoint Depression Visibility Wind Speed Wind Dir Waves Ship Positions

Akebono

Last reported at 2015-Feb-28 22:34 UTC. Time now 2015-Feb-28 23:09 UTC.
Position N 35°26' E 139°42'.

Length 33 m; draft 4.4 m.

Type: Tug. MMSI: 431000233.

Date/timePositionNaut miles runAvg speedWind from/ knotsBaromVisibWave heightAir tempDewpointWater temp
2015-Feb-28 22:34N 35°26' E 139°42'3 3.2
2015-Feb-28 21:33N 35°27' E 139°38'0 0.0
2015-Feb-28 20:33N 35°27' E 139°38'1 0.0
2015-Feb-27 08:34N 35°27' E 139°39'6 6.3
2015-Feb-27 07:33N 35°29' E 139°47'0 0.4
2015-Feb-27 06:34N 35°29' E 139°47'1 0.7
2015-Feb-27 05:33N 35°29' E 139°46'0 0.0
2015-Feb-27 04:33N 35°29' E 139°46'0 0.0
2015-Feb-27 03:33N 35°29' E 139°46'0 0.0
2015-Feb-27 02:33N 35°29' E 139°46'1 1.1
2015-Feb-27 01:32N 35°28' E 139°44'1 0.6
2015-Feb-27 00:31N 35°28' E 139°44'1 1.3
2015-Feb-26 23:34N 35°26' E 139°45'3 3.4
2015-Feb-26 22:33N 35°25' E 139°41'0 0.5
2015-Feb-26 21:33N 35°25' E 139°42'3 3.3
2015-Feb-26 20:33N 35°27' E 139°38'0 0.0
2015-Feb-26 07:09N 35°27' E 139°38'2 2.6
2015-Feb-26 06:33N 35°28' E 139°40'6 5.9
2015-Feb-26 05:33N 35°30' E 139°47'3 3.5
2015-Feb-26 04:33N 35°28' E 139°44'0 0.0
2015-Feb-26 03:33N 35°28' E 139°44'1 1.0
2015-Feb-26 02:33N 35°29' E 139°44'1 1.3
2015-Feb-26 01:33N 35°28' E 139°46'1 0.6
2015-Feb-26 00:33N 35°28' E 139°46'6 0.4
2015-Feb-25 07:11N 35°27' E 139°38'0 0.0
2015-Feb-25 06:34N 35°27' E 139°38'0 0.0
2015-Feb-25 05:34N 35°27' E 139°38'0 0.2
2015-Feb-25 04:33N 35°28' E 139°39'4 3.6
2015-Feb-25 03:33N 35°24' E 139°38'0 0.0
2015-Feb-25 02:33N 35°24' E 139°38'2 1.7
2015-Feb-25 01:34N 35°24' E 139°40'2 1.8
2015-Feb-25 00:33N 35°24' E 139°38'1 1.4
2015-Feb-24 23:33N 35°23' E 139°40'2 2.2
2015-Feb-24 22:33N 35°25' E 139°42'2 1.8
2015-Feb-24 21:33N 35°26' E 139°42'3 3.0
2015-Feb-24 20:33N 35°27' E 139°38'0 0.0
2015-Feb-24 08:33N 35°28' E 139°39'2 2.0
2015-Feb-24 07:34N 35°27' E 139°41'2 1.5
2015-Feb-24 06:33N 35°26' E 139°42'2 1.6
2015-Feb-24 05:34N 35°24' E 139°42'3 3.1
2015-Feb-24 04:33N 35°24' E 139°38'0 0.1
2015-Feb-24 03:33N 35°24' E 139°38'3 2.7
2015-Feb-24 02:34N 35°23' E 139°41'1 0.7
2015-Feb-24 01:33N 35°23' E 139°41'3 3.0
2015-Feb-24 00:34N 35°26' E 139°41'1 1.4
2015-Feb-23 23:34N 35°27' E 139°42'1 1.0
2015-Feb-23 22:34N 35°28' E 139°41'3 2.9
2015-Feb-23 21:34N 35°26' E 139°45'5 5.2
2015-Feb-23 20:33N 35°27' E 139°38'0 0.0
2015-Feb-23 09:33N 35°28' E 139°39'2 2.0
2015-Feb-23 08:33N 35°27' E 139°41'2 2.3
2015-Feb-23 07:33N 35°27' E 139°38'0 0.0
2015-Feb-23 06:33N 35°27' E 139°38'0 0.0
2015-Feb-23 05:33N 35°27' E 139°38'0 0.0
2015-Feb-23 04:33N 35°27' E 139°38'0 0.0
2015-Feb-23 03:33N 35°27' E 139°38'0 0.0
2015-Feb-23 02:33N 35°27' E 139°38'0 0.0
2015-Feb-23 01:33N 35°27' E 139°38'0 0.0
2015-Feb-23 00:33N 35°27' E 139°38'3 3.5
2015-Feb-22 23:33N 35°27' E 139°43'4 3.5
2015-Feb-22 22:34N 35°27' E 139°38'0 0.0
2015-Feb-21 23:34N 35°28' E 139°38'4 3.5
2015-Feb-21 22:33N 35°26' E 139°42'1 0.7
2015-Feb-21 21:33N 35°26' E 139°42'0 0.2
2015-Feb-21 20:33N 35°26' E 139°42'1 0.6
2015-Feb-21 19:33N 35°26' E 139°41'0 0.3
2015-Feb-21 18:33N 35°27' E 139°41'0 0.0
2015-Feb-21 17:33N 35°27' E 139°41'0 0.0
2015-Feb-21 16:33N 35°27' E 139°41'0 0.0
2015-Feb-21 15:33N 35°27' E 139°41'0 0.0
2015-Feb-21 14:33N 35°27' E 139°41'0 0.0
2015-Feb-21 13:33N 35°27' E 139°41'0 0.0
2015-Feb-21 12:33N 35°27' E 139°41'0 0.2
2015-Feb-21 11:33N 35°27' E 139°41'0 0.2
2015-Feb-21 10:33N 35°27' E 139°41'0 0.5
2015-Feb-21 09:34N 35°26' E 139°41'1 1.0
2015-Feb-21 08:33N 35°27' E 139°42'1 1.3
2015-Feb-21 07:33N 35°28' E 139°42'3 2.8
2015-Feb-21 06:33N 35°27' E 139°38'0 0.0
2015-Feb-21 05:33N 35°27' E 139°38'0 0.0
2015-Feb-21 04:33N 35°27' E 139°38'0 0.0
2015-Feb-21 03:34N 35°27' E 139°38'0 0.0
2015-Feb-21 02:33N 35°27' E 139°38'7 6.9
2015-Feb-21 01:33N 35°31' E 139°46'0 0.2
2015-Feb-21 00:33N 35°31' E 139°46'2 1.7
2015-Feb-20 23:33N 35°30' E 139°48'7 6.5
2015-Feb-20 22:34N 35°27' E 139°41'2 0.1
2015-Feb-20 07:08N 35°27' E 139°38'0 0.0
2015-Feb-20 06:33N 35°27' E 139°38'0 0.0
2015-Feb-20 05:33N 35°27' E 139°38'0 0.0
2015-Feb-20 04:33N 35°27' E 139°38'0 0.0
2015-Feb-20 03:33N 35°27' E 139°38'0 0.0
2015-Feb-20 02:33N 35°27' E 139°38'2 2.0
2015-Feb-20 01:33N 35°27' E 139°41'2 1.9
2015-Feb-20 00:32N 35°28' E 139°43'1 1.2
2015-Feb-19 23:33N 35°27' E 139°42'1 1.1
2015-Feb-19 22:33N 35°27' E 139°41'1 1.3
2015-Feb-19 21:33N 35°27' E 139°39'1 0.1
2015-Feb-19 07:10N 35°27' E 139°38'0 0.0
2015-Feb-19 06:33N 35°27' E 139°38'0 0.0
2015-Feb-19 05:33N 35°27' E 139°38'0 0.0
2015-Feb-19 04:33N 35°27' E 139°38'0 0.0
2015-Feb-19 03:33N 35°27' E 139°38'0 0.0
2015-Feb-19 02:33N 35°27' E 139°38'0 0.0
2015-Feb-19 01:33N 35°27' E 139°38'0 0.0
2015-Feb-19 00:33N 35°27' E 139°38'0 0.0
2015-Feb-18 23:33N 35°27' E 139°38'  
Track history (hours):
 
Tides and Currents Weather Stations Pressure Air Temp Water Temp Dewpoint Dewpoint Depression Visibility Wind Speed Wind Dir Waves Ship Positions

Akebono

Last reported at 2015-Feb-28 22:34 UTC. Time now 2015-Feb-28 23:09 UTC.
Position N 35°26' E 139°42'.

Length 33 m; draft 4.4 m.

Type: Tug. MMSI: 431000233.

Date/timePositionNaut miles runAvg speedWind from/ knotsBaromVisibWave heightAir tempDewpointWater temp
2015-Feb-28 22:34N 35°26' E 139°42'3 3.2
2015-Feb-28 21:33N 35°27' E 139°38'0 0.0
2015-Feb-28 20:33N 35°27' E 139°38'1 0.0
2015-Feb-27 08:34N 35°27' E 139°39'6 6.3
2015-Feb-27 07:33N 35°29' E 139°47'0 0.4
2015-Feb-27 06:34N 35°29' E 139°47'1 0.7
2015-Feb-27 05:33N 35°29' E 139°46'0 0.0
2015-Feb-27 04:33N 35°29' E 139°46'0 0.0
2015-Feb-27 03:33N 35°29' E 139°46'0 0.0
2015-Feb-27 02:33N 35°29' E 139°46'1 1.1
2015-Feb-27 01:32N 35°28' E 139°44'1 0.6
2015-Feb-27 00:31N 35°28' E 139°44'1 1.3
2015-Feb-26 23:34N 35°26' E 139°45'3 3.4
2015-Feb-26 22:33N 35°25' E 139°41'0 0.5
2015-Feb-26 21:33N 35°25' E 139°42'3 3.3
2015-Feb-26 20:33N 35°27' E 139°38'0 0.0
2015-Feb-26 07:09N 35°27' E 139°38'2 2.6
2015-Feb-26 06:33N 35°28' E 139°40'6 5.9
2015-Feb-26 05:33N 35°30' E 139°47'3 3.5
2015-Feb-26 04:33N 35°28' E 139°44'0 0.0
2015-Feb-26 03:33N 35°28' E 139°44'1 1.0
2015-Feb-26 02:33N 35°29' E 139°44'1 1.3
2015-Feb-26 01:33N 35°28' E 139°46'1 0.6
2015-Feb-26 00:33N 35°28' E 139°46'6 0.4
2015-Feb-25 07:11N 35°27' E 139°38'0 0.0
2015-Feb-25 06:34N 35°27' E 139°38'0 0.0
2015-Feb-25 05:34N 35°27' E 139°38'0 0.2
2015-Feb-25 04:33N 35°28' E 139°39'4 3.6
2015-Feb-25 03:33N 35°24' E 139°38'0 0.0
2015-Feb-25 02:33N 35°24' E 139°38'2 1.7
2015-Feb-25 01:34N 35°24' E 139°40'2 1.8
2015-Feb-25 00:33N 35°24' E 139°38'1 1.4
2015-Feb-24 23:33N 35°23' E 139°40'2 2.2
2015-Feb-24 22:33N 35°25' E 139°42'2 1.8
2015-Feb-24 21:33N 35°26' E 139°42'3 3.0
2015-Feb-24 20:33N 35°27' E 139°38'0 0.0
2015-Feb-24 08:33N 35°28' E 139°39'2 2.0
2015-Feb-24 07:34N 35°27' E 139°41'2 1.5
2015-Feb-24 06:33N 35°26' E 139°42'2 1.6
2015-Feb-24 05:34N 35°24' E 139°42'3 3.1
2015-Feb-24 04:33N 35°24' E 139°38'0 0.1
2015-Feb-24 03:33N 35°24' E 139°38'3 2.7
2015-Feb-24 02:34N 35°23' E 139°41'1 0.7
2015-Feb-24 01:33N 35°23' E 139°41'3 3.0
2015-Feb-24 00:34N 35°26' E 139°41'1 1.4
2015-Feb-23 23:34N 35°27' E 139°42'1 1.0
2015-Feb-23 22:34N 35°28' E 139°41'3 2.9
2015-Feb-23 21:34N 35°26' E 139°45'5 5.2
2015-Feb-23 20:33N 35°27' E 139°38'0 0.0
2015-Feb-23 09:33N 35°28' E 139°39'2 2.0
2015-Feb-23 08:33N 35°27' E 139°41'2 2.3
2015-Feb-23 07:33N 35°27' E 139°38'0 0.0
2015-Feb-23 06:33N 35°27' E 139°38'0 0.0
2015-Feb-23 05:33N 35°27' E 139°38'0 0.0
2015-Feb-23 04:33N 35°27' E 139°38'0 0.0
2015-Feb-23 03:33N 35°27' E 139°38'0 0.0
2015-Feb-23 02:33N 35°27' E 139°38'0 0.0
2015-Feb-23 01:33N 35°27' E 139°38'0 0.0
2015-Feb-23 00:33N 35°27' E 139°38'3 3.5
2015-Feb-22 23:33N 35°27' E 139°43'4 3.5
2015-Feb-22 22:34N 35°27' E 139°38'0 0.0
2015-Feb-21 23:34N 35°28' E 139°38'4 3.5
2015-Feb-21 22:33N 35°26' E 139°42'1 0.7
2015-Feb-21 21:33N 35°26' E 139°42'0 0.2
2015-Feb-21 20:33N 35°26' E 139°42'1 0.6
2015-Feb-21 19:33N 35°26' E 139°41'0 0.3
2015-Feb-21 18:33N 35°27' E 139°41'0 0.0
2015-Feb-21 17:33N 35°27' E 139°41'0 0.0
2015-Feb-21 16:33N 35°27' E 139°41'0 0.0
2015-Feb-21 15:33N 35°27' E 139°41'0 0.0
2015-Feb-21 14:33N 35°27' E 139°41'0 0.0
2015-Feb-21 13:33N 35°27' E 139°41'0 0.0
2015-Feb-21 12:33N 35°27' E 139°41'0 0.2
2015-Feb-21 11:33N 35°27' E 139°41'0 0.2
2015-Feb-21 10:33N 35°27' E 139°41'0 0.5
2015-Feb-21 09:34N 35°26' E 139°41'1 1.0
2015-Feb-21 08:33N 35°27' E 139°42'1 1.3
2015-Feb-21 07:33N 35°28' E 139°42'3 2.8
2015-Feb-21 06:33N 35°27' E 139°38'0 0.0
2015-Feb-21 05:33N 35°27' E 139°38'0 0.0
2015-Feb-21 04:33N 35°27' E 139°38'0 0.0
2015-Feb-21 03:34N 35°27' E 139°38'0 0.0
2015-Feb-21 02:33N 35°27' E 139°38'7 6.9
2015-Feb-21 01:33N 35°31' E 139°46'0 0.2
2015-Feb-21 00:33N 35°31' E 139°46'2 1.7
2015-Feb-20 23:33N 35°30' E 139°48'7 6.5
2015-Feb-20 22:34N 35°27' E 139°41'2 0.1
2015-Feb-20 07:08N 35°27' E 139°38'0 0.0
2015-Feb-20 06:33N 35°27' E 139°38'0 0.0
2015-Feb-20 05:33N 35°27' E 139°38'0 0.0
2015-Feb-20 04:33N 35°27' E 139°38'0 0.0
2015-Feb-20 03:33N 35°27' E 139°38'0 0.0
2015-Feb-20 02:33N 35°27' E 139°38'2 2.0
2015-Feb-20 01:33N 35°27' E 139°41'2 1.9
2015-Feb-20 00:32N 35°28' E 139°43'1 1.2
2015-Feb-19 23:33N 35°27' E 139°42'1 1.1
2015-Feb-19 22:33N 35°27' E 139°41'1 1.3
2015-Feb-19 21:33N 35°27' E 139°39'1 0.1
2015-Feb-19 07:10N 35°27' E 139°38'0 0.0
2015-Feb-19 06:33N 35°27' E 139°38'0 0.0
2015-Feb-19 05:33N 35°27' E 139°38'0 0.0
2015-Feb-19 04:33N 35°27' E 139°38'0 0.0
2015-Feb-19 03:33N 35°27' E 139°38'0 0.0
2015-Feb-19 02:33N 35°27' E 139°38'0 0.0
2015-Feb-19 01:33N 35°27' E 139°38'0 0.0
2015-Feb-19 00:33N 35°27' E 139°38'0 0.0
2015-Feb-18 23:33N 35°27' E 139°38'  

Dump ship's entire track history